sensor_id;sensor_type;location;lat;lon;timestamp;P1;durP1;ratioP1;P2;durP2;ratioP2
17991;SDS011;9121;50.926;5.340;2023-08-24T00:01:06;10.55;;;5.95;;
17991;SDS011;9121;50.926;5.340;2023-08-24T00:03:34;12.57;;;5.90;;
17991;SDS011;9121;50.926;5.340;2023-08-24T00:06:01;15.13;;;5.63;;
17991;SDS011;9121;50.926;5.340;2023-08-24T00:08:29;8.68;;;5.25;;
17991;SDS011;9121;50.926;5.340;2023-08-24T00:10:57;11.82;;;5.97;;
17991;SDS011;9121;50.926;5.340;2023-08-24T00:13:25;10.65;;;6.00;;
17991;SDS011;9121;50.926;5.340;2023-08-24T00:15:52;10.18;;;6.32;;
17991;SDS011;9121;50.926;5.340;2023-08-24T00:18:20;11.25;;;6.47;;
17991;SDS011;9121;50.926;5.340;2023-08-24T00:20:47;11.98;;;6.47;;
17991;SDS011;9121;50.926;5.340;2023-08-24T00:23:14;12.07;;;6.53;;
17991;SDS011;9121;50.926;5.340;2023-08-24T00:25:43;14.30;;;7.63;;
17991;SDS011;9121;50.926;5.340;2023-08-24T00:28:09;11.55;;;7.85;;
17991;SDS011;9121;50.926;5.340;2023-08-24T00:30:36;13.82;;;8.35;;
17991;SDS011;9121;50.926;5.340;2023-08-24T00:33:03;14.52;;;8.32;;
17991;SDS011;9121;50.926;5.340;2023-08-24T00:35:30;10.07;;;7.70;;
17991;SDS011;9121;50.926;5.340;2023-08-24T00:37:57;15.40;;;7.65;;
17991;SDS011;9121;50.926;5.340;2023-08-24T00:40:25;11.90;;;8.35;;
17991;SDS011;9121;50.926;5.340;2023-08-24T00:42:53;17.63;;;8.02;;
17991;SDS011;9121;50.926;5.340;2023-08-24T00:45:20;15.43;;;8.73;;
17991;SDS011;9121;50.926;5.340;2023-08-24T00:47:47;13.38;;;8.13;;
17991;SDS011;9121;50.926;5.340;2023-08-24T00:50:14;12.38;;;8.48;;
17991;SDS011;9121;50.926;5.340;2023-08-24T00:52:42;13.55;;;7.65;;
17991;SDS011;9121;50.926;5.340;2023-08-24T00:55:10;18.02;;;7.93;;
17991;SDS011;9121;50.926;5.340;2023-08-24T00:57:37;19.05;;;8.52;;
17991;SDS011;9121;50.926;5.340;2023-08-24T01:00:08;17.92;;;9.13;;
17991;SDS011;9121;50.926;5.340;2023-08-24T01:02:36;19.33;;;9.25;;
17991;SDS011;9121;50.926;5.340;2023-08-24T01:05:04;13.93;;;8.32;;
17991;SDS011;9121;50.926;5.340;2023-08-24T01:07:32;15.45;;;8.25;;
17991;SDS011;9121;50.926;5.340;2023-08-24T01:10:00;16.85;;;9.43;;
17991;SDS011;9121;50.926;5.340;2023-08-24T01:12:30;16.65;;;8.20;;
17991;SDS011;9121;50.926;5.340;2023-08-24T01:15:04;13.85;;;8.75;;
17991;SDS011;9121;50.926;5.340;2023-08-24T01:17:35;13.43;;;8.98;;
17991;SDS011;9121;50.926;5.340;2023-08-24T01:20:05;18.58;;;8.88;;
17991;SDS011;9121;50.926;5.340;2023-08-24T01:22:37;15.50;;;8.73;;
17991;SDS011;9121;50.926;5.340;2023-08-24T01:25:13;19.02;;;9.75;;
17991;SDS011;9121;50.926;5.340;2023-08-24T01:27:44;19.08;;;9.00;;
17991;SDS011;9121;50.926;5.340;2023-08-24T01:30:14;15.30;;;9.60;;
17991;SDS011;9121;50.926;5.340;2023-08-24T01:32:41;16.38;;;9.43;;
17991;SDS011;9121;50.926;5.340;2023-08-24T01:35:09;21.30;;;9.80;;
17991;SDS011;9121;50.926;5.340;2023-08-24T01:37:36;20.88;;;9.57;;
17991;SDS011;9121;50.926;5.340;2023-08-24T01:40:04;14.88;;;9.38;;
17991;SDS011;9121;50.926;5.340;2023-08-24T01:42:38;12.88;;;9.38;;
17991;SDS011;9121;50.926;5.340;2023-08-24T01:45:14;16.55;;;9.57;;
17991;SDS011;9121;50.926;5.340;2023-08-24T01:47:43;18.88;;;9.77;;
17991;SDS011;9121;50.926;5.340;2023-08-24T01:50:11;16.92;;;8.68;;
17991;SDS011;9121;50.926;5.340;2023-08-24T01:52:38;19.77;;;8.88;;
17991;SDS011;9121;50.926;5.340;2023-08-24T01:55:07;14.95;;;8.50;;
17991;SDS011;9121;50.926;5.340;2023-08-24T01:57:34;17.08;;;8.75;;
17991;SDS011;9121;50.926;5.340;2023-08-24T02:00:03;13.63;;;8.77;;
17991;SDS011;9121;50.926;5.340;2023-08-24T02:02:31;15.13;;;9.20;;
17991;SDS011;9121;50.926;5.340;2023-08-24T02:04:59;12.63;;;8.38;;
17991;SDS011;9121;50.926;5.340;2023-08-24T02:07:26;22.40;;;8.40;;
17991;SDS011;9121;50.926;5.340;2023-08-24T02:09:52;13.20;;;8.02;;
17991;SDS011;9121;50.926;5.340;2023-08-24T02:12:19;15.85;;;8.73;;
17991;SDS011;9121;50.926;5.340;2023-08-24T02:14:47;16.48;;;8.90;;
17991;SDS011;9121;50.926;5.340;2023-08-24T02:17:15;14.43;;;8.18;;
17991;SDS011;9121;50.926;5.340;2023-08-24T02:19:42;13.05;;;7.93;;
17991;SDS011;9121;50.926;5.340;2023-08-24T02:22:09;12.00;;;7.60;;
17991;SDS011;9121;50.926;5.340;2023-08-24T02:24:36;15.20;;;7.75;;
17991;SDS011;9121;50.926;5.340;2023-08-24T02:27:04;16.17;;;7.80;;
17991;SDS011;9121;50.926;5.340;2023-08-24T02:29:31;13.40;;;7.78;;
17991;SDS011;9121;50.926;5.340;2023-08-24T02:31:58;12.48;;;7.25;;
17991;SDS011;9121;50.926;5.340;2023-08-24T02:34:26;10.32;;;7.13;;
17991;SDS011;9121;50.926;5.340;2023-08-24T02:36:53;11.55;;;7.28;;
17991;SDS011;9121;50.926;5.340;2023-08-24T02:39:20;12.65;;;7.65;;
17991;SDS011;9121;50.926;5.340;2023-08-24T02:41:47;12.82;;;7.35;;
17991;SDS011;9121;50.926;5.340;2023-08-24T02:44:14;15.05;;;7.20;;
17991;SDS011;9121;50.926;5.340;2023-08-24T02:46:43;51.67;;;10.00;;
17991;SDS011;9121;50.926;5.340;2023-08-24T02:49:11;18.23;;;7.25;;
17991;SDS011;9121;50.926;5.340;2023-08-24T02:51:39;37.72;;;9.13;;
17991;SDS011;9121;50.926;5.340;2023-08-24T02:54:06;25.92;;;8.80;;
17991;SDS011;9121;50.926;5.340;2023-08-24T02:56:33;75.35;;;12.68;;
17991;SDS011;9121;50.926;5.340;2023-08-24T02:59:00;14.60;;;8.38;;
17991;SDS011;9121;50.926;5.340;2023-08-24T03:01:27;24.05;;;9.63;;
17991;SDS011;9121;50.926;5.340;2023-08-24T03:03:54;24.05;;;9.70;;
17991;SDS011;9121;50.926;5.340;2023-08-24T03:06:21;21.25;;;9.38;;
17991;SDS011;9121;50.926;5.340;2023-08-24T03:08:50;20.40;;;9.90;;
17991;SDS011;9121;50.926;5.340;2023-08-24T03:11:17;25.27;;;10.85;;
17991;SDS011;9121;50.926;5.340;2023-08-24T03:13:44;23.10;;;10.98;;
17991;SDS011;9121;50.926;5.340;2023-08-24T03:16:11;20.60;;;11.10;;
17991;SDS011;9121;50.926;5.340;2023-08-24T03:18:37;26.85;;;12.73;;
17991;SDS011;9121;50.926;5.340;2023-08-24T03:21:05;21.73;;;12.23;;
17991;SDS011;9121;50.926;5.340;2023-08-24T03:23:32;22.05;;;11.75;;
17991;SDS011;9121;50.926;5.340;2023-08-24T03:26:00;21.20;;;10.98;;
17991;SDS011;9121;50.926;5.340;2023-08-24T03:28:28;16.85;;;10.55;;
17991;SDS011;9121;50.926;5.340;2023-08-24T03:30:55;25.05;;;10.48;;
17991;SDS011;9121;50.926;5.340;2023-08-24T03:33:22;20.15;;;10.55;;
17991;SDS011;9121;50.926;5.340;2023-08-24T03:35:49;20.52;;;11.48;;
17991;SDS011;9121;50.926;5.340;2023-08-24T03:38:16;18.70;;;10.05;;
17991;SDS011;9121;50.926;5.340;2023-08-24T03:40:43;24.02;;;10.45;;
17991;SDS011;9121;50.926;5.340;2023-08-24T03:43:11;23.73;;;10.48;;
17991;SDS011;9121;50.926;5.340;2023-08-24T03:45:38;20.30;;;10.50;;
17991;SDS011;9121;50.926;5.340;2023-08-24T03:48:05;19.60;;;10.05;;
17991;SDS011;9121;50.926;5.340;2023-08-24T03:50:32;18.08;;;9.73;;
17991;SDS011;9121;50.926;5.340;2023-08-24T03:52:59;15.45;;;9.65;;
17991;SDS011;9121;50.926;5.340;2023-08-24T03:55:26;18.55;;;10.30;;
17991;SDS011;9121;50.926;5.340;2023-08-24T03:57:53;17.75;;;10.07;;
17991;SDS011;9121;50.926;5.340;2023-08-24T04:00:21;17.98;;;9.80;;
17991;SDS011;9121;50.926;5.340;2023-08-24T04:02:48;14.30;;;8.75;;
17991;SDS011;9121;50.926;5.340;2023-08-24T04:05:16;13.98;;;8.88;;
17991;SDS011;9121;50.926;5.340;2023-08-24T04:07:43;17.17;;;8.80;;
17991;SDS011;9121;50.926;5.340;2023-08-24T04:10:10;16.38;;;9.60;;
17991;SDS011;9121;50.926;5.340;2023-08-24T04:12:37;15.80;;;9.57;;
17991;SDS011;9121;50.926;5.340;2023-08-24T04:15:05;13.85;;;9.45;;
17991;SDS011;9121;50.926;5.340;2023-08-24T04:17:33;16.58;;;9.43;;
17991;SDS011;9121;50.926;5.340;2023-08-24T04:20:00;17.88;;;9.95;;
17991;SDS011;9121;50.926;5.340;2023-08-24T04:22:31;20.60;;;9.95;;
17991;SDS011;9121;50.926;5.340;2023-08-24T04:24:58;14.05;;;9.43;;
17991;SDS011;9121;50.926;5.340;2023-08-24T04:27:26;18.52;;;9.90;;
17991;SDS011;9121;50.926;5.340;2023-08-24T04:29:53;16.77;;;10.23;;
17991;SDS011;9121;50.926;5.340;2023-08-24T04:32:20;16.00;;;10.30;;
17991;SDS011;9121;50.926;5.340;2023-08-24T04:34:49;17.35;;;10.32;;
17991;SDS011;9121;50.926;5.340;2023-08-24T04:37:16;14.15;;;10.05;;
17991;SDS011;9121;50.926;5.340;2023-08-24T04:39:42;15.93;;;10.60;;
17991;SDS011;9121;50.926;5.340;2023-08-24T04:42:09;15.35;;;9.73;;
17991;SDS011;9121;50.926;5.340;2023-08-24T04:44:36;19.10;;;10.57;;
17991;SDS011;9121;50.926;5.340;2023-08-24T04:47:03;20.17;;;10.93;;
17991;SDS011;9121;50.926;5.340;2023-08-24T04:49:31;19.60;;;10.73;;
17991;SDS011;9121;50.926;5.340;2023-08-24T04:51:59;26.50;;;11.38;;
17991;SDS011;9121;50.926;5.340;2023-08-24T04:54:26;21.65;;;11.35;;
17991;SDS011;9121;50.926;5.340;2023-08-24T04:56:53;22.20;;;10.25;;
17991;SDS011;9121;50.926;5.340;2023-08-24T04:59:20;20.35;;;10.77;;
17991;SDS011;9121;50.926;5.340;2023-08-24T05:01:47;21.25;;;11.30;;
17991;SDS011;9121;50.926;5.340;2023-08-24T05:04:13;21.13;;;11.32;;
17991;SDS011;9121;50.926;5.340;2023-08-24T05:06:40;23.63;;;10.77;;
17991;SDS011;9121;50.926;5.340;2023-08-24T05:09:09;22.13;;;10.63;;
17991;SDS011;9121;50.926;5.340;2023-08-24T05:11:36;21.05;;;11.10;;
17991;SDS011;9121;50.926;5.340;2023-08-24T05:14:03;23.38;;;11.07;;
17991;SDS011;9121;50.926;5.340;2023-08-24T05:16:29;18.67;;;11.55;;
17991;SDS011;9121;50.926;5.340;2023-08-24T05:18:56;21.88;;;11.63;;
17991;SDS011;9121;50.926;5.340;2023-08-24T05:21:23;21.10;;;11.38;;
17991;SDS011;9121;50.926;5.340;2023-08-24T05:23:50;21.50;;;11.95;;
17991;SDS011;9121;50.926;5.340;2023-08-24T05:26:19;21.33;;;11.35;;
17991;SDS011;9121;50.926;5.340;2023-08-24T05:28:49;17.80;;;11.80;;
17991;SDS011;9121;50.926;5.340;2023-08-24T05:31:18;20.40;;;11.40;;
17991;SDS011;9121;50.926;5.340;2023-08-24T05:33:45;23.45;;;11.43;;
17991;SDS011;9121;50.926;5.340;2023-08-24T05:36:12;24.23;;;11.70;;
17991;SDS011;9121;50.926;5.340;2023-08-24T05:38:39;18.30;;;12.13;;
17991;SDS011;9121;50.926;5.340;2023-08-24T05:41:12;22.90;;;11.70;;
17991;SDS011;9121;50.926;5.340;2023-08-24T05:43:40;22.30;;;11.90;;
17991;SDS011;9121;50.926;5.340;2023-08-24T05:46:07;21.75;;;12.48;;
17991;SDS011;9121;50.926;5.340;2023-08-24T05:48:34;24.20;;;11.95;;
17991;SDS011;9121;50.926;5.340;2023-08-24T05:51:01;20.02;;;11.77;;
17991;SDS011;9121;50.926;5.340;2023-08-24T05:53:28;26.88;;;12.63;;
17991;SDS011;9121;50.926;5.340;2023-08-24T05:55:58;18.55;;;12.02;;
17991;SDS011;9121;50.926;5.340;2023-08-24T05:58:25;21.30;;;11.77;;
17991;SDS011;9121;50.926;5.340;2023-08-24T06:00:59;21.23;;;13.50;;
17991;SDS011;9121;50.926;5.340;2023-08-24T06:03:27;24.83;;;12.90;;
17991;SDS011;9121;50.926;5.340;2023-08-24T06:05:54;22.05;;;11.80;;
17991;SDS011;9121;50.926;5.340;2023-08-24T06:08:27;26.52;;;12.60;;
17991;SDS011;9121;50.926;5.340;2023-08-24T06:10:55;24.25;;;12.82;;
17991;SDS011;9121;50.926;5.340;2023-08-24T06:13:22;28.30;;;12.90;;
17991;SDS011;9121;50.926;5.340;2023-08-24T06:15:49;22.33;;;12.32;;
17991;SDS011;9121;50.926;5.340;2023-08-24T06:18:17;23.23;;;12.30;;
17991;SDS011;9121;50.926;5.340;2023-08-24T06:20:44;25.30;;;13.40;;
17991;SDS011;9121;50.926;5.340;2023-08-24T06:23:11;22.48;;;13.07;;
17991;SDS011;9121;50.926;5.340;2023-08-24T06:25:38;24.77;;;13.05;;
17991;SDS011;9121;50.926;5.340;2023-08-24T06:28:05;20.25;;;12.82;;
17991;SDS011;9121;50.926;5.340;2023-08-24T06:30:36;27.00;;;13.48;;
17991;SDS011;9121;50.926;5.340;2023-08-24T06:33:04;23.92;;;12.73;;
17991;SDS011;9121;50.926;5.340;2023-08-24T06:35:33;26.50;;;12.88;;
17991;SDS011;9121;50.926;5.340;2023-08-24T06:38:00;22.67;;;12.02;;
17991;SDS011;9121;50.926;5.340;2023-08-24T06:40:28;23.35;;;12.45;;
17991;SDS011;9121;50.926;5.340;2023-08-24T06:42:55;25.52;;;12.18;;
17991;SDS011;9121;50.926;5.340;2023-08-24T06:45:22;20.00;;;11.60;;
17991;SDS011;9121;50.926;5.340;2023-08-24T06:47:49;20.30;;;10.82;;
17991;SDS011;9121;50.926;5.340;2023-08-24T06:50:17;21.98;;;10.65;;
17991;SDS011;9121;50.926;5.340;2023-08-24T06:52:46;17.35;;;9.40;;
17991;SDS011;9121;50.926;5.340;2023-08-24T06:55:13;18.17;;;9.82;;
17991;SDS011;9121;50.926;5.340;2023-08-24T06:57:40;23.55;;;9.82;;
17991;SDS011;9121;50.926;5.340;2023-08-24T07:00:08;21.98;;;9.82;;
17991;SDS011;9121;50.926;5.340;2023-08-24T07:02:40;19.02;;;9.95;;
17991;SDS011;9121;50.926;5.340;2023-08-24T07:05:07;18.65;;;9.25;;
17991;SDS011;9121;50.926;5.340;2023-08-24T07:07:34;21.60;;;8.75;;
17991;SDS011;9121;50.926;5.340;2023-08-24T07:10:03;18.85;;;8.07;;
17991;SDS011;9121;50.926;5.340;2023-08-24T07:12:31;20.48;;;8.20;;
17991;SDS011;9121;50.926;5.340;2023-08-24T07:14:58;17.45;;;7.80;;
17991;SDS011;9121;50.926;5.340;2023-08-24T07:17:25;12.48;;;6.88;;
17991;SDS011;9121;50.926;5.340;2023-08-24T07:19:52;17.38;;;7.80;;
17991;SDS011;9121;50.926;5.340;2023-08-24T07:22:19;16.63;;;7.25;;
17991;SDS011;9121;50.926;5.340;2023-08-24T07:24:46;11.90;;;7.15;;
17991;SDS011;9121;50.926;5.340;2023-08-24T07:27:18;24.80;;;7.80;;
17991;SDS011;9121;50.926;5.340;2023-08-24T07:29:46;18.23;;;7.43;;
17991;SDS011;9121;50.926;5.340;2023-08-24T07:32:13;12.98;;;6.10;;
17991;SDS011;9121;50.926;5.340;2023-08-24T07:34:40;15.00;;;6.97;;
17991;SDS011;9121;50.926;5.340;2023-08-24T07:37:07;20.65;;;6.88;;
17991;SDS011;9121;50.926;5.340;2023-08-24T07:39:34;12.90;;;6.50;;
17991;SDS011;9121;50.926;5.340;2023-08-24T07:42:01;12.52;;;6.55;;
17991;SDS011;9121;50.926;5.340;2023-08-24T07:44:29;19.20;;;6.38;;
17991;SDS011;9121;50.926;5.340;2023-08-24T07:46:56;14.25;;;6.50;;
17991;SDS011;9121;50.926;5.340;2023-08-24T07:49:23;12.18;;;6.05;;
17991;SDS011;9121;50.926;5.340;2023-08-24T07:51:50;11.25;;;6.00;;
17991;SDS011;9121;50.926;5.340;2023-08-24T07:54:17;14.38;;;5.90;;
17991;SDS011;9121;50.926;5.340;2023-08-24T07:56:45;11.98;;;5.63;;
17991;SDS011;9121;50.926;5.340;2023-08-24T07:59:12;29.42;;;6.65;;
17991;SDS011;9121;50.926;5.340;2023-08-24T08:01:40;13.20;;;4.88;;
17991;SDS011;9121;50.926;5.340;2023-08-24T08:04:07;12.00;;;4.78;;
17991;SDS011;9121;50.926;5.340;2023-08-24T08:06:34;14.60;;;4.15;;
17991;SDS011;9121;50.926;5.340;2023-08-24T08:09:01;13.85;;;4.85;;
17991;SDS011;9121;50.926;5.340;2023-08-24T08:11:28;61.85;;;7.28;;
17991;SDS011;9121;50.926;5.340;2023-08-24T08:13:55;12.13;;;4.80;;
17991;SDS011;9121;50.926;5.340;2023-08-24T08:16:22;7.47;;;4.22;;
17991;SDS011;9121;50.926;5.340;2023-08-24T08:18:51;39.95;;;6.70;;
17991;SDS011;9121;50.926;5.340;2023-08-24T08:21:18;13.50;;;5.18;;
17991;SDS011;9121;50.926;5.340;2023-08-24T08:23:45;11.10;;;4.75;;
17991;SDS011;9121;50.926;5.340;2023-08-24T08:26:12;14.88;;;4.82;;
17991;SDS011;9121;50.926;5.340;2023-08-24T08:28:39;114.22;;;10.55;;
17991;SDS011;9121;50.926;5.340;2023-08-24T08:31:06;17.67;;;4.53;;
17991;SDS011;9121;50.926;5.340;2023-08-24T08:33:33;23.55;;;5.32;;
17991;SDS011;9121;50.926;5.340;2023-08-24T08:36:02;12.95;;;6.18;;
17991;SDS011;9121;50.926;5.340;2023-08-24T08:38:29;19.52;;;5.75;;
17991;SDS011;9121;50.926;5.340;2023-08-24T08:40:56;8.80;;;4.60;;
17991;SDS011;9121;50.926;5.340;2023-08-24T08:43:28;7.82;;;5.13;;
17991;SDS011;9121;50.926;5.340;2023-08-24T08:45:56;9.27;;;4.30;;
17991;SDS011;9121;50.926;5.340;2023-08-24T08:48:24;13.00;;;4.82;;
17991;SDS011;9121;50.926;5.340;2023-08-24T08:50:51;11.18;;;4.93;;
17991;SDS011;9121;50.926;5.340;2023-08-24T08:53:22;12.30;;;4.57;;
17991;SDS011;9121;50.926;5.340;2023-08-24T08:55:50;8.13;;;4.85;;
17991;SDS011;9121;50.926;5.340;2023-08-24T08:58:19;13.38;;;4.80;;
17991;SDS011;9121;50.926;5.340;2023-08-24T09:00:47;18.23;;;4.63;;
17991;SDS011;9121;50.926;5.340;2023-08-24T09:03:14;12.68;;;5.40;;
17991;SDS011;9121;50.926;5.340;2023-08-24T09:05:44;9.35;;;4.32;;
17991;SDS011;9121;50.926;5.340;2023-08-24T09:08:13;16.30;;;4.90;;
17991;SDS011;9121;50.926;5.340;2023-08-24T09:10:43;16.92;;;4.82;;
17991;SDS011;9121;50.926;5.340;2023-08-24T09:13:10;7.50;;;4.05;;
17991;SDS011;9121;50.926;5.340;2023-08-24T09:15:37;9.82;;;4.18;;
17991;SDS011;9121;50.926;5.340;2023-08-24T09:18:04;10.27;;;4.78;;
17991;SDS011;9121;50.926;5.340;2023-08-24T09:20:31;46.42;;;7.47;;
17991;SDS011;9121;50.926;5.340;2023-08-24T09:23:00;8.93;;;5.90;;
17991;SDS011;9121;50.926;5.340;2023-08-24T09:25:27;11.15;;;5.35;;
17991;SDS011;9121;50.926;5.340;2023-08-24T09:27:59;11.68;;;5.78;;
17991;SDS011;9121;50.926;5.340;2023-08-24T09:30:30;23.02;;;5.75;;
17991;SDS011;9121;50.926;5.340;2023-08-24T09:33:01;12.23;;;5.05;;
17991;SDS011;9121;50.926;5.340;2023-08-24T09:35:29;56.88;;;7.32;;
17991;SDS011;9121;50.926;5.340;2023-08-24T09:38:06;8.25;;;4.47;;
17991;SDS011;9121;50.926;5.340;2023-08-24T09:40:44;8.55;;;3.97;;
17991;SDS011;9121;50.926;5.340;2023-08-24T09:43:14;14.25;;;4.55;;
17991;SDS011;9121;50.926;5.340;2023-08-24T09:45:48;20.27;;;5.65;;
17991;SDS011;9121;50.926;5.340;2023-08-24T09:48:16;15.82;;;5.80;;
17991;SDS011;9121;50.926;5.340;2023-08-24T09:50:44;10.90;;;5.45;;
17991;SDS011;9121;50.926;5.340;2023-08-24T09:53:12;21.33;;;5.45;;
17991;SDS011;9121;50.926;5.340;2023-08-24T09:55:44;41.42;;;6.85;;
17991;SDS011;9121;50.926;5.340;2023-08-24T09:58:15;10.60;;;5.35;;
17991;SDS011;9121;50.926;5.340;2023-08-24T10:00:44;8.82;;;4.65;;
17991;SDS011;9121;50.926;5.340;2023-08-24T10:03:13;11.40;;;5.43;;
17991;SDS011;9121;50.926;5.340;2023-08-24T10:05:45;15.80;;;4.93;;
17991;SDS011;9121;50.926;5.340;2023-08-24T10:08:16;10.80;;;5.53;;
17991;SDS011;9121;50.926;5.340;2023-08-24T10:10:46;8.25;;;5.35;;
17991;SDS011;9121;50.926;5.340;2023-08-24T10:13:20;10.20;;;6.05;;
17991;SDS011;9121;50.926;5.340;2023-08-24T10:15:55;16.33;;;6.70;;
17991;SDS011;9121;50.926;5.340;2023-08-24T10:18:25;17.95;;;6.90;;
17991;SDS011;9121;50.926;5.340;2023-08-24T10:20:52;11.70;;;8.20;;
17991;SDS011;9121;50.926;5.340;2023-08-24T10:23:21;16.88;;;8.57;;
17991;SDS011;9121;50.926;5.340;2023-08-24T10:25:49;17.95;;;7.95;;
17991;SDS011;9121;50.926;5.340;2023-08-24T10:28:19;17.63;;;7.65;;
17991;SDS011;9121;50.926;5.340;2023-08-24T10:30:46;22.23;;;7.38;;
17991;SDS011;9121;50.926;5.340;2023-08-24T10:33:14;12.82;;;6.75;;
17991;SDS011;9121;50.926;5.340;2023-08-24T10:35:42;15.93;;;6.80;;
17991;SDS011;9121;50.926;5.340;2023-08-24T10:38:22;12.70;;;6.10;;
17991;SDS011;9121;50.926;5.340;2023-08-24T10:40:50;15.65;;;6.72;;
17991;SDS011;9121;50.926;5.340;2023-08-24T10:43:18;11.20;;;6.03;;
17991;SDS011;9121;50.926;5.340;2023-08-24T10:45:59;18.25;;;7.80;;
17991;SDS011;9121;50.926;5.340;2023-08-24T10:48:27;15.52;;;6.68;;
17991;SDS011;9121;50.926;5.340;2023-08-24T10:53:45;16.83;;;6.05;;
17991;SDS011;9121;50.926;5.340;2023-08-24T10:56:13;10.38;;;6.50;;
17991;SDS011;9121;50.926;5.340;2023-08-24T10:58:42;15.55;;;7.05;;
17991;SDS011;9121;50.926;5.340;2023-08-24T11:01:16;11.68;;;6.38;;
17991;SDS011;9121;50.926;5.340;2023-08-24T11:03:51;14.60;;;7.18;;
17991;SDS011;9121;50.926;5.340;2023-08-24T11:06:21;9.63;;;6.95;;
17991;SDS011;9121;50.926;5.340;2023-08-24T11:09:04;16.05;;;7.78;;
17991;SDS011;9121;50.926;5.340;2023-08-24T11:11:34;14.23;;;7.68;;
17991;SDS011;9121;50.926;5.340;2023-08-24T11:14:14;18.90;;;9.02;;
17991;SDS011;9121;50.926;5.340;2023-08-24T11:16:43;15.10;;;8.45;;
17991;SDS011;9121;50.926;5.340;2023-08-24T11:19:11;19.15;;;9.35;;
17991;SDS011;9121;50.926;5.340;2023-08-24T11:21:39;25.58;;;11.05;;
17991;SDS011;9121;50.926;5.340;2023-08-24T11:24:08;20.48;;;10.88;;
17991;SDS011;9121;50.926;5.340;2023-08-24T11:26:39;16.08;;;10.10;;
17991;SDS011;9121;50.926;5.340;2023-08-24T11:29:07;13.93;;;9.48;;
17991;SDS011;9121;50.926;5.340;2023-08-24T11:31:36;19.58;;;10.15;;
17991;SDS011;9121;50.926;5.340;2023-08-24T11:34:04;16.35;;;10.20;;
17991;SDS011;9121;50.926;5.340;2023-08-24T11:36:40;21.50;;;10.65;;
17991;SDS011;9121;50.926;5.340;2023-08-24T11:39:13;19.13;;;10.73;;
17991;SDS011;9121;50.926;5.340;2023-08-24T11:41:42;54.10;;;15.10;;
17991;SDS011;9121;50.926;5.340;2023-08-24T11:44:09;19.80;;;10.95;;
17991;SDS011;9121;50.926;5.340;2023-08-24T11:46:38;20.15;;;11.15;;
17991;SDS011;9121;50.926;5.340;2023-08-24T11:49:05;22.42;;;11.43;;
17991;SDS011;9121;50.926;5.340;2023-08-24T11:51:32;17.33;;;11.70;;
17991;SDS011;9121;50.926;5.340;2023-08-24T11:54:00;22.48;;;11.32;;
17991;SDS011;9121;50.926;5.340;2023-08-24T11:56:27;17.15;;;10.27;;
17991;SDS011;9121;50.926;5.340;2023-08-24T11:58:54;18.00;;;10.02;;
17991;SDS011;9121;50.926;5.340;2023-08-24T12:01:21;20.75;;;10.00;;
17991;SDS011;9121;50.926;5.340;2023-08-24T12:03:51;14.45;;;8.25;;
17991;SDS011;9121;50.926;5.340;2023-08-24T12:06:18;16.27;;;8.60;;
17991;SDS011;9121;50.926;5.340;2023-08-24T12:08:45;14.50;;;6.90;;
17991;SDS011;9121;50.926;5.340;2023-08-24T12:11:14;10.77;;;6.05;;
17991;SDS011;9121;50.926;5.340;2023-08-24T12:13:45;12.40;;;6.20;;
17991;SDS011;9121;50.926;5.340;2023-08-24T12:16:15;10.00;;;5.88;;
17991;SDS011;9121;50.926;5.340;2023-08-24T12:18:53;8.57;;;6.03;;
17991;SDS011;9121;50.926;5.340;2023-08-24T12:21:21;11.40;;;6.32;;
17991;SDS011;9121;50.926;5.340;2023-08-24T12:23:55;17.95;;;6.85;;
17991;SDS011;9121;50.926;5.340;2023-08-24T12:26:23;9.95;;;5.85;;
17991;SDS011;9121;50.926;5.340;2023-08-24T12:28:50;10.15;;;5.63;;
17991;SDS011;9121;50.926;5.340;2023-08-24T12:31:18;11.32;;;5.95;;
17991;SDS011;9121;50.926;5.340;2023-08-24T12:33:45;15.70;;;5.90;;
17991;SDS011;9121;50.926;5.340;2023-08-24T12:36:25;10.93;;;5.13;;
17991;SDS011;9121;50.926;5.340;2023-08-24T12:38:52;10.95;;;5.35;;
17991;SDS011;9121;50.926;5.340;2023-08-24T12:41:19;8.82;;;4.82;;
17991;SDS011;9121;50.926;5.340;2023-08-24T12:43:46;9.70;;;4.90;;
17991;SDS011;9121;50.926;5.340;2023-08-24T12:46:13;13.00;;;4.80;;
17991;SDS011;9121;50.926;5.340;2023-08-24T12:48:40;9.82;;;5.13;;
17991;SDS011;9121;50.926;5.340;2023-08-24T12:51:07;15.13;;;5.68;;
17991;SDS011;9121;50.926;5.340;2023-08-24T12:53:36;10.05;;;4.90;;
17991;SDS011;9121;50.926;5.340;2023-08-24T12:56:03;12.38;;;5.75;;
17991;SDS011;9121;50.926;5.340;2023-08-24T12:58:30;10.90;;;5.18;;
17991;SDS011;9121;50.926;5.340;2023-08-24T13:00:57;12.07;;;4.68;;
17991;SDS011;9121;50.926;5.340;2023-08-24T13:03:24;12.77;;;5.63;;
17991;SDS011;9121;50.926;5.340;2023-08-24T13:05:51;13.48;;;5.60;;
17991;SDS011;9121;50.926;5.340;2023-08-24T13:08:18;12.23;;;5.28;;
17991;SDS011;9121;50.926;5.340;2023-08-24T13:10:47;11.88;;;5.18;;
17991;SDS011;9121;50.926;5.340;2023-08-24T13:13:14;10.10;;;5.05;;
17991;SDS011;9121;50.926;5.340;2023-08-24T13:15:41;12.18;;;5.45;;
17991;SDS011;9121;50.926;5.340;2023-08-24T13:18:07;10.52;;;5.55;;
17991;SDS011;9121;50.926;5.340;2023-08-24T13:20:34;13.82;;;4.85;;
17991;SDS011;9121;50.926;5.340;2023-08-24T13:23:01;8.30;;;4.50;;
17991;SDS011;9121;50.926;5.340;2023-08-24T13:25:29;13.02;;;4.97;;
17991;SDS011;9121;50.926;5.340;2023-08-24T13:27:57;11.70;;;5.30;;
17991;SDS011;9121;50.926;5.340;2023-08-24T13:30:24;9.30;;;5.22;;
17991;SDS011;9121;50.926;5.340;2023-08-24T13:32:52;10.48;;;5.20;;
17991;SDS011;9121;50.926;5.340;2023-08-24T13:35:19;14.05;;;5.95;;
17991;SDS011;9121;50.926;5.340;2023-08-24T13:37:46;8.00;;;4.70;;
17991;SDS011;9121;50.926;5.340;2023-08-24T13:40:13;8.35;;;4.80;;
17991;SDS011;9121;50.926;5.340;2023-08-24T13:42:40;11.82;;;5.43;;
17991;SDS011;9121;50.926;5.340;2023-08-24T13:45:09;10.68;;;4.45;;
17991;SDS011;9121;50.926;5.340;2023-08-24T13:47:36;11.40;;;4.82;;
17991;SDS011;9121;50.926;5.340;2023-08-24T13:50:04;10.65;;;4.82;;
17991;SDS011;9121;50.926;5.340;2023-08-24T13:52:31;10.10;;;4.03;;
17991;SDS011;9121;50.926;5.340;2023-08-24T13:54:58;7.75;;;3.83;;
17991;SDS011;9121;50.926;5.340;2023-08-24T13:57:28;11.15;;;3.70;;
17991;SDS011;9121;50.926;5.340;2023-08-24T13:59:55;6.65;;;3.63;;
17991;SDS011;9121;50.926;5.340;2023-08-24T14:02:23;5.97;;;2.95;;
17991;SDS011;9121;50.926;5.340;2023-08-24T14:04:50;6.57;;;3.35;;
17991;SDS011;9121;50.926;5.340;2023-08-24T14:07:17;8.18;;;3.40;;
17991;SDS011;9121;50.926;5.340;2023-08-24T14:09:44;5.90;;;3.05;;
17991;SDS011;9121;50.926;5.340;2023-08-24T14:12:11;9.52;;;3.65;;
17991;SDS011;9121;50.926;5.340;2023-08-24T14:14:38;8.18;;;3.25;;
17991;SDS011;9121;50.926;5.340;2023-08-24T14:17:05;6.30;;;3.10;;
17991;SDS011;9121;50.926;5.340;2023-08-24T14:19:33;6.10;;;2.70;;
17991;SDS011;9121;50.926;5.340;2023-08-24T14:22:00;7.32;;;2.83;;
17991;SDS011;9121;50.926;5.340;2023-08-24T14:24:27;4.85;;;2.83;;
17991;SDS011;9121;50.926;5.340;2023-08-24T14:26:54;15.93;;;2.88;;
17991;SDS011;9121;50.926;5.340;2023-08-24T14:29:21;6.90;;;2.95;;
17991;SDS011;9121;50.926;5.340;2023-08-24T14:31:48;8.23;;;2.50;;
17991;SDS011;9121;50.926;5.340;2023-08-24T14:34:15;7.85;;;2.70;;
17991;SDS011;9121;50.926;5.340;2023-08-24T14:36:44;11.15;;;2.85;;
17991;SDS011;9121;50.926;5.340;2023-08-24T14:39:11;7.72;;;2.63;;
17991;SDS011;9121;50.926;5.340;2023-08-24T14:41:38;6.88;;;2.13;;
17991;SDS011;9121;50.926;5.340;2023-08-24T14:44:05;8.25;;;2.50;;
17991;SDS011;9121;50.926;5.340;2023-08-24T14:46:33;8.82;;;2.72;;
17991;SDS011;9121;50.926;5.340;2023-08-24T14:49:00;5.22;;;2.20;;
17991;SDS011;9121;50.926;5.340;2023-08-24T14:51:27;4.00;;;2.30;;
17991;SDS011;9121;50.926;5.340;2023-08-24T14:53:56;13.18;;;2.72;;